sensor_id;sensor_type;location;lat;lon;timestamp;temperature;humidity
44461;DHT22;30162;53.642;10.640;2023-06-10T00:00:35;19.50;75.30
44461;DHT22;30162;53.642;10.640;2023-06-10T00:03:01;19.50;75.30
44461;DHT22;30162;53.642;10.640;2023-06-10T00:05:27;19.40;75.30
44461;DHT22;30162;53.642;10.640;2023-06-10T00:07:55;19.40;75.40
44461;DHT22;30162;53.642;10.640;2023-06-10T00:10:21;19.30;75.50
44461;DHT22;30162;53.642;10.640;2023-06-10T00:12:47;19.10;76.10
44461;DHT22;30162;53.642;10.640;2023-06-10T00:15:12;18.90;76.30
44461;DHT22;30162;53.642;10.640;2023-06-10T00:17:38;18.90;76.20
44461;DHT22;30162;53.642;10.640;2023-06-10T00:20:05;19.10;76.10
44461;DHT22;30162;53.642;10.640;2023-06-10T00:22:34;19.00;75.60
44461;DHT22;30162;53.642;10.640;2023-06-10T00:24:59;18.90;76.30
44461;DHT22;30162;53.642;10.640;2023-06-10T00:27:25;18.90;76.10
44461;DHT22;30162;53.642;10.640;2023-06-10T00:29:56;19.00;75.90
44461;DHT22;30162;53.642;10.640;2023-06-10T00:32:21;19.00;75.40
44461;DHT22;30162;53.642;10.640;2023-06-10T00:34:47;19.10;75.40
44461;DHT22;30162;53.642;10.640;2023-06-10T00:37:12;19.00;75.50
44461;DHT22;30162;53.642;10.640;2023-06-10T00:39:38;19.00;75.20
44461;DHT22;30162;53.642;10.640;2023-06-10T00:42:04;18.90;75.70
44461;DHT22;30162;53.642;10.640;2023-06-10T00:44:32;18.90;75.60
44461;DHT22;30162;53.642;10.640;2023-06-10T00:46:57;18.90;75.90
44461;DHT22;30162;53.642;10.640;2023-06-10T00:49:23;18.80;75.60
44461;DHT22;30162;53.642;10.640;2023-06-10T00:51:48;18.80;75.60
44461;DHT22;30162;53.642;10.640;2023-06-10T00:54:14;18.80;75.60
44461;DHT22;30162;53.642;10.640;2023-06-10T00:56:39;18.90;75.80
44461;DHT22;30162;53.642;10.640;2023-06-10T00:59:08;18.90;75.50
44461;DHT22;30162;53.642;10.640;2023-06-10T01:01:34;18.90;75.50
44461;DHT22;30162;53.642;10.640;2023-06-10T01:04:00;18.90;75.80
44461;DHT22;30162;53.642;10.640;2023-06-10T01:11:36;18.80;75.70
44461;DHT22;30162;53.642;10.640;2023-06-10T01:14:06;18.80;75.30
44461;DHT22;30162;53.642;10.640;2023-06-10T01:16:33;18.60;75.90
44461;DHT22;30162;53.642;10.640;2023-06-10T01:19:01;18.70;75.80
44461;DHT22;30162;53.642;10.640;2023-06-10T01:21:26;18.80;75.70
44461;DHT22;30162;53.642;10.640;2023-06-10T01:23:52;18.70;75.80
44461;DHT22;30162;53.642;10.640;2023-06-10T01:26:18;18.70;75.90
44461;DHT22;30162;53.642;10.640;2023-06-10T01:28:51;18.70;75.60
44461;DHT22;30162;53.642;10.640;2023-06-10T01:31:31;18.60;75.80
44461;DHT22;30162;53.642;10.640;2023-06-10T01:33:59;18.50;75.90
44461;DHT22;30162;53.642;10.640;2023-06-10T01:36:25;18.50;75.80
44461;DHT22;30162;53.642;10.640;2023-06-10T01:38:51;18.50;75.90
44461;DHT22;30162;53.642;10.640;2023-06-10T01:41:18;18.60;75.70
44461;DHT22;30162;53.642;10.640;2023-06-10T01:43:44;18.60;75.50
44461;DHT22;30162;53.642;10.640;2023-06-10T01:46:10;18.50;75.80
44461;DHT22;30162;53.642;10.640;2023-06-10T01:48:37;18.50;75.70
44461;DHT22;30162;53.642;10.640;2023-06-10T01:51:03;18.60;75.60
44461;DHT22;30162;53.642;10.640;2023-06-10T01:53:28;18.60;75.30
44461;DHT22;30162;53.642;10.640;2023-06-10T01:55:54;18.60;75.50
44461;DHT22;30162;53.642;10.640;2023-06-10T01:58:19;18.60;75.40
44461;DHT22;30162;53.642;10.640;2023-06-10T02:00:44;18.50;75.60
44461;DHT22;30162;53.642;10.640;2023-06-10T02:03:10;18.50;75.70
44461;DHT22;30162;53.642;10.640;2023-06-10T02:05:35;18.50;75.70
44461;DHT22;30162;53.642;10.640;2023-06-10T02:08:01;18.50;75.80
44461;DHT22;30162;53.642;10.640;2023-06-10T02:10:26;18.50;75.80
44461;DHT22;30162;53.642;10.640;2023-06-10T02:12:52;18.50;75.80
44461;DHT22;30162;53.642;10.640;2023-06-10T02:15:18;18.40;76.00
44461;DHT22;30162;53.642;10.640;2023-06-10T02:17:43;18.40;76.10
44461;DHT22;30162;53.642;10.640;2023-06-10T02:20:10;18.30;76.50
44461;DHT22;30162;53.642;10.640;2023-06-10T02:22:36;18.30;76.40
44461;DHT22;30162;53.642;10.640;2023-06-10T02:25:01;18.40;76.40
44461;DHT22;30162;53.642;10.640;2023-06-10T02:27:27;18.40;76.10
44461;DHT22;30162;53.642;10.640;2023-06-10T02:29:52;18.40;76.20
44461;DHT22;30162;53.642;10.640;2023-06-10T02:32:18;18.30;76.00
44461;DHT22;30162;53.642;10.640;2023-06-10T02:34:43;18.10;76.90
44461;DHT22;30162;53.642;10.640;2023-06-10T02:37:09;18.20;76.60
44461;DHT22;30162;53.642;10.640;2023-06-10T02:39:34;18.20;76.60
44461;DHT22;30162;53.642;10.640;2023-06-10T02:42:00;18.30;76.30
44461;DHT22;30162;53.642;10.640;2023-06-10T02:44:25;18.30;76.60
44461;DHT22;30162;53.642;10.640;2023-06-10T02:46:51;18.30;76.60
44461;DHT22;30162;53.642;10.640;2023-06-10T02:49:16;18.30;76.60
44461;DHT22;30162;53.642;10.640;2023-06-10T02:51:42;18.30;76.50
44461;DHT22;30162;53.642;10.640;2023-06-10T02:54:07;18.30;76.50
44461;DHT22;30162;53.642;10.640;2023-06-10T02:56:32;18.20;76.90
44461;DHT22;30162;53.642;10.640;2023-06-10T02:58:58;18.20;77.10
44461;DHT22;30162;53.642;10.640;2023-06-10T03:01:24;18.20;77.00
44461;DHT22;30162;53.642;10.640;2023-06-10T03:03:49;18.30;76.80
44461;DHT22;30162;53.642;10.640;2023-06-10T03:06:15;18.40;76.70
44461;DHT22;30162;53.642;10.640;2023-06-10T03:08:41;18.50;76.10
44461;DHT22;30162;53.642;10.640;2023-06-10T03:11:06;18.40;76.70
44461;DHT22;30162;53.642;10.640;2023-06-10T03:13:32;18.40;76.70
44461;DHT22;30162;53.642;10.640;2023-06-10T03:15:58;18.30;76.30
44461;DHT22;30162;53.642;10.640;2023-06-10T03:18:27;18.30;77.00
44461;DHT22;30162;53.642;10.640;2023-06-10T03:20:53;18.40;77.10
44461;DHT22;30162;53.642;10.640;2023-06-10T03:23:18;18.40;77.20
44461;DHT22;30162;53.642;10.640;2023-06-10T03:25:44;18.40;76.80
44461;DHT22;30162;53.642;10.640;2023-06-10T03:28:10;18.40;76.50
44461;DHT22;30162;53.642;10.640;2023-06-10T03:30:35;18.50;76.70
44461;DHT22;30162;53.642;10.640;2023-06-10T03:33:01;18.50;76.60
44461;DHT22;30162;53.642;10.640;2023-06-10T03:35:26;18.40;76.70
44461;DHT22;30162;53.642;10.640;2023-06-10T03:37:52;18.60;76.80
44461;DHT22;30162;53.642;10.640;2023-06-10T03:40:17;18.60;76.50
44461;DHT22;30162;53.642;10.640;2023-06-10T03:42:43;18.70;76.50
44461;DHT22;30162;53.642;10.640;2023-06-10T03:45:09;18.70;76.40
44461;DHT22;30162;53.642;10.640;2023-06-10T03:47:35;18.80;76.50
44461;DHT22;30162;53.642;10.640;2023-06-10T03:50:04;18.70;76.70
44461;DHT22;30162;53.642;10.640;2023-06-10T03:52:30;18.80;76.60
44461;DHT22;30162;53.642;10.640;2023-06-10T03:54:55;18.90;76.40
44461;DHT22;30162;53.642;10.640;2023-06-10T03:57:20;19.00;76.50
44461;DHT22;30162;53.642;10.640;2023-06-10T03:59:46;19.00;76.30
44461;DHT22;30162;53.642;10.640;2023-06-10T04:02:11;18.90;76.30
44461;DHT22;30162;53.642;10.640;2023-06-10T04:04:37;19.00;76.60
44461;DHT22;30162;53.642;10.640;2023-06-10T04:07:03;19.00;76.40
44461;DHT22;30162;53.642;10.640;2023-06-10T04:09:29;19.10;76.40
44461;DHT22;30162;53.642;10.640;2023-06-10T04:11:54;19.20;75.90
44461;DHT22;30162;53.642;10.640;2023-06-10T04:14:19;19.30;76.00
44461;DHT22;30162;53.642;10.640;2023-06-10T04:16:45;19.40;75.70
44461;DHT22;30162;53.642;10.640;2023-06-10T04:19:10;19.40;75.80
44461;DHT22;30162;53.642;10.640;2023-06-10T04:21:36;19.50;75.50
44461;DHT22;30162;53.642;10.640;2023-06-10T04:24:01;19.60;75.30
44461;DHT22;30162;53.642;10.640;2023-06-10T04:26:27;19.70;75.30
44461;DHT22;30162;53.642;10.640;2023-06-10T04:28:53;19.80;74.60
44461;DHT22;30162;53.642;10.640;2023-06-10T04:31:18;20.00;74.50
44461;DHT22;30162;53.642;10.640;2023-06-10T04:33:44;20.00;74.30
44461;DHT22;30162;53.642;10.640;2023-06-10T04:36:10;20.00;74.70
44461;DHT22;30162;53.642;10.640;2023-06-10T04:38:35;20.10;74.60
44461;DHT22;30162;53.642;10.640;2023-06-10T04:41:01;20.20;74.50
44461;DHT22;30162;53.642;10.640;2023-06-10T04:43:27;20.40;74.20
44461;DHT22;30162;53.642;10.640;2023-06-10T04:45:54;20.50;73.50
44461;DHT22;30162;53.642;10.640;2023-06-10T04:48:19;20.60;73.00
44461;DHT22;30162;53.642;10.640;2023-06-10T04:50:44;20.50;73.40
44461;DHT22;30162;53.642;10.640;2023-06-10T04:53:10;20.60;73.30
44461;DHT22;30162;53.642;10.640;2023-06-10T04:55:36;20.70;73.20
44461;DHT22;30162;53.642;10.640;2023-06-10T04:58:01;20.90;72.50
44461;DHT22;30162;53.642;10.640;2023-06-10T05:00:27;20.90;72.80
44461;DHT22;30162;53.642;10.640;2023-06-10T05:02:52;21.10;72.20
44461;DHT22;30162;53.642;10.640;2023-06-10T05:05:18;21.20;71.90
44461;DHT22;30162;53.642;10.640;2023-06-10T05:07:44;21.20;72.20
44461;DHT22;30162;53.642;10.640;2023-06-10T05:10:10;21.30;72.20
44461;DHT22;30162;53.642;10.640;2023-06-10T05:12:38;21.20;71.30
44461;DHT22;30162;53.642;10.640;2023-06-10T05:15:04;21.30;71.50
44461;DHT22;30162;53.642;10.640;2023-06-10T05:17:30;21.10;71.90
44461;DHT22;30162;53.642;10.640;2023-06-10T05:19:55;21.30;71.40
44461;DHT22;30162;53.642;10.640;2023-06-10T05:22:21;21.40;71.20
44461;DHT22;30162;53.642;10.640;2023-06-10T05:24:49;21.60;70.80
44461;DHT22;30162;53.642;10.640;2023-06-10T05:27:14;21.60;71.10
44461;DHT22;30162;53.642;10.640;2023-06-10T05:29:40;21.70;70.70
44461;DHT22;30162;53.642;10.640;2023-06-10T05:32:05;21.80;70.50
44461;DHT22;30162;53.642;10.640;2023-06-10T05:34:31;21.80;70.20
44461;DHT22;30162;53.642;10.640;2023-06-10T05:36:57;22.00;71.10
44461;DHT22;30162;53.642;10.640;2023-06-10T05:39:22;22.20;69.40
44461;DHT22;30162;53.642;10.640;2023-06-10T05:41:48;22.10;69.60
44461;DHT22;30162;53.642;10.640;2023-06-10T05:44:13;22.10;69.60
44461;DHT22;30162;53.642;10.640;2023-06-10T05:46:39;22.10;69.50
44461;DHT22;30162;53.642;10.640;2023-06-10T05:49:04;22.10;69.50
44461;DHT22;30162;53.642;10.640;2023-06-10T05:51:29;22.40;69.30
44461;DHT22;30162;53.642;10.640;2023-06-10T05:53:55;22.30;68.60
44461;DHT22;30162;53.642;10.640;2023-06-10T05:56:20;22.10;68.80
44461;DHT22;30162;53.642;10.640;2023-06-10T05:58:49;22.10;69.40
44461;DHT22;30162;53.642;10.640;2023-06-10T06:01:14;22.20;69.20
44461;DHT22;30162;53.642;10.640;2023-06-10T06:03:40;22.40;69.70
44461;DHT22;30162;53.642;10.640;2023-06-10T06:06:06;22.70;69.10
44461;DHT22;30162;53.642;10.640;2023-06-10T06:08:31;22.90;67.80
44461;DHT22;30162;53.642;10.640;2023-06-10T06:10:57;22.80;68.60
44461;DHT22;30162;53.642;10.640;2023-06-10T06:13:22;23.00;68.30
44461;DHT22;30162;53.642;10.640;2023-06-10T06:15:48;22.80;68.00
44461;DHT22;30162;53.642;10.640;2023-06-10T06:18:13;22.30;70.00
44461;DHT22;30162;53.642;10.640;2023-06-10T06:20:39;22.70;68.40
44461;DHT22;30162;53.642;10.640;2023-06-10T06:23:04;23.00;68.30
44461;DHT22;30162;53.642;10.640;2023-06-10T06:25:30;23.30;67.30
44461;DHT22;30162;53.642;10.640;2023-06-10T06:27:55;23.40;68.20
44461;DHT22;30162;53.642;10.640;2023-06-10T06:30:20;23.30;66.80
44461;DHT22;30162;53.642;10.640;2023-06-10T06:32:46;23.20;67.90
44461;DHT22;30162;53.642;10.640;2023-06-10T06:35:11;23.60;67.40
44461;DHT22;30162;53.642;10.640;2023-06-10T06:37:37;23.90;66.40
44461;DHT22;30162;53.642;10.640;2023-06-10T06:40:02;24.20;66.30
44461;DHT22;30162;53.642;10.640;2023-06-10T06:42:29;24.40;65.30
44461;DHT22;30162;53.642;10.640;2023-06-10T06:44:54;24.40;66.00
44461;DHT22;30162;53.642;10.640;2023-06-10T06:47:20;24.40;64.90
44461;DHT22;30162;53.642;10.640;2023-06-10T06:49:46;24.40;65.80
44461;DHT22;30162;53.642;10.640;2023-06-10T06:52:11;24.50;65.20
44461;DHT22;30162;53.642;10.640;2023-06-10T06:54:37;24.60;64.80
44461;DHT22;30162;53.642;10.640;2023-06-10T06:57:02;24.60;64.90
44461;DHT22;30162;53.642;10.640;2023-06-10T06:59:28;24.60;64.90
44461;DHT22;30162;53.642;10.640;2023-06-10T07:01:53;24.50;65.00
44461;DHT22;30162;53.642;10.640;2023-06-10T07:04:20;24.90;65.00
44461;DHT22;30162;53.642;10.640;2023-06-10T07:06:47;25.10;64.00
44461;DHT22;30162;53.642;10.640;2023-06-10T07:09:12;25.20;64.30
44461;DHT22;30162;53.642;10.640;2023-06-10T07:11:38;25.30;64.80
44461;DHT22;30162;53.642;10.640;2023-06-10T07:14:04;25.30;63.70
44461;DHT22;30162;53.642;10.640;2023-06-10T07:16:29;25.60;63.60
44461;DHT22;30162;53.642;10.640;2023-06-10T07:18:55;26.00;63.50
44461;DHT22;30162;53.642;10.640;2023-06-10T07:21:20;25.90;62.00
44461;DHT22;30162;53.642;10.640;2023-06-10T07:23:46;26.00;62.80
44461;DHT22;30162;53.642;10.640;2023-06-10T07:26:11;26.10;62.60
44461;DHT22;30162;53.642;10.640;2023-06-10T07:28:41;26.30;61.90
44461;DHT22;30162;53.642;10.640;2023-06-10T07:31:08;26.40;61.30
44461;DHT22;30162;53.642;10.640;2023-06-10T07:33:33;26.00;62.50
44461;DHT22;30162;53.642;10.640;2023-06-10T07:35:59;26.30;62.80
44461;DHT22;30162;53.642;10.640;2023-06-10T07:38:25;26.50;61.10
44461;DHT22;30162;53.642;10.640;2023-06-10T07:40:51;26.50;61.80
44461;DHT22;30162;53.642;10.640;2023-06-10T07:43:16;26.80;61.10
44461;DHT22;30162;53.642;10.640;2023-06-10T07:45:42;26.80;61.60
44461;DHT22;30162;53.642;10.640;2023-06-10T07:48:07;26.80;61.20
44461;DHT22;30162;53.642;10.640;2023-06-10T07:50:33;26.90;61.00
44461;DHT22;30162;53.642;10.640;2023-06-10T07:53:00;27.10;61.10
44461;DHT22;30162;53.642;10.640;2023-06-10T07:55:26;27.40;60.80
44461;DHT22;30162;53.642;10.640;2023-06-10T07:57:52;27.30;60.50
44461;DHT22;30162;53.642;10.640;2023-06-10T08:00:17;27.40;60.80
44461;DHT22;30162;53.642;10.640;2023-06-10T08:02:43;27.60;60.90
44461;DHT22;30162;53.642;10.640;2023-06-10T08:05:08;27.80;59.60
44461;DHT22;30162;53.642;10.640;2023-06-10T08:07:34;27.90;60.10
44461;DHT22;30162;53.642;10.640;2023-06-10T08:10:00;28.00;59.80
44461;DHT22;30162;53.642;10.640;2023-06-10T08:12:25;28.20;59.40
44461;DHT22;30162;53.642;10.640;2023-06-10T08:14:50;28.50;59.70
44461;DHT22;30162;53.642;10.640;2023-06-10T08:17:16;28.50;58.80
44461;DHT22;30162;53.642;10.640;2023-06-10T08:19:41;28.60;59.10
44461;DHT22;30162;53.642;10.640;2023-06-10T08:22:07;28.60;59.40
44461;DHT22;30162;53.642;10.640;2023-06-10T08:24:32;28.70;58.60
44461;DHT22;30162;53.642;10.640;2023-06-10T08:26:58;28.30;59.70
44461;DHT22;30162;53.642;10.640;2023-06-10T08:29:23;28.40;59.50
44461;DHT22;30162;53.642;10.640;2023-06-10T08:31:49;28.60;58.80
44461;DHT22;30162;53.642;10.640;2023-06-10T08:34:14;28.90;59.20
44461;DHT22;30162;53.642;10.640;2023-06-10T08:36:40;29.20;59.00
44461;DHT22;30162;53.642;10.640;2023-06-10T08:39:05;29.00;59.00
44461;DHT22;30162;53.642;10.640;2023-06-10T08:41:33;29.10;58.40
44461;DHT22;30162;53.642;10.640;2023-06-10T08:46:44;29.40;59.20
44461;DHT22;30162;53.642;10.640;2023-06-10T08:49:10;29.70;58.00
44461;DHT22;30162;53.642;10.640;2023-06-10T08:51:35;29.90;57.80
44461;DHT22;30162;53.642;10.640;2023-06-10T08:54:04;30.00;57.40
44461;DHT22;30162;53.642;10.640;2023-06-10T08:56:30;30.00;57.30
44461;DHT22;30162;53.642;10.640;2023-06-10T08:58:58;30.10;58.10
44461;DHT22;30162;53.642;10.640;2023-06-10T09:01:24;30.50;57.90
44461;DHT22;30162;53.642;10.640;2023-06-10T09:03:51;30.70;56.80
44461;DHT22;30162;53.642;10.640;2023-06-10T09:06:16;30.80;56.40
44461;DHT22;30162;53.642;10.640;2023-06-10T09:08:43;30.70;56.80
44461;DHT22;30162;53.642;10.640;2023-06-10T09:11:08;30.90;56.40
44461;DHT22;30162;53.642;10.640;2023-06-10T09:13:34;31.00;56.60
44461;DHT22;30162;53.642;10.640;2023-06-10T09:15:59;30.90;56.70
44461;DHT22;30162;53.642;10.640;2023-06-10T09:18:26;30.90;56.60
44461;DHT22;30162;53.642;10.640;2023-06-10T09:20:52;31.00;56.60
44461;DHT22;30162;53.642;10.640;2023-06-10T09:23:18;31.00;56.40
44461;DHT22;30162;53.642;10.640;2023-06-10T09:25:43;31.10;56.30
44461;DHT22;30162;53.642;10.640;2023-06-10T09:28:12;31.30;56.60
44461;DHT22;30162;53.642;10.640;2023-06-10T09:30:38;31.40;56.30
44461;DHT22;30162;53.642;10.640;2023-06-10T09:33:09;31.40;56.10
44461;DHT22;30162;53.642;10.640;2023-06-10T09:35:35;31.60;56.30
44461;DHT22;30162;53.642;10.640;2023-06-10T09:38:00;31.80;56.40
44461;DHT22;30162;53.642;10.640;2023-06-10T09:40:26;32.00;55.90
44461;DHT22;30162;53.642;10.640;2023-06-10T09:42:53;32.00;54.80
44461;DHT22;30162;53.642;10.640;2023-06-10T09:45:20;31.70;55.50
44461;DHT22;30162;53.642;10.640;2023-06-10T09:47:46;31.30;55.90
44461;DHT22;30162;53.642;10.640;2023-06-10T09:50:12;30.90;56.40
44461;DHT22;30162;53.642;10.640;2023-06-10T09:52:37;30.90;56.70
44461;DHT22;30162;53.642;10.640;2023-06-10T09:55:03;31.10;57.00
44461;DHT22;30162;53.642;10.640;2023-06-10T09:57:32;31.20;56.90
44461;DHT22;30162;53.642;10.640;2023-06-10T09:59:59;31.20;56.70
44461;DHT22;30162;53.642;10.640;2023-06-10T10:02:24;31.00;57.00
44461;DHT22;30162;53.642;10.640;2023-06-10T10:04:50;31.50;56.50
44461;DHT22;30162;53.642;10.640;2023-06-10T10:07:15;31.90;56.60
44461;DHT22;30162;53.642;10.640;2023-06-10T10:09:41;32.10;56.00
44461;DHT22;30162;53.642;10.640;2023-06-10T10:12:13;32.20;55.20
44461;DHT22;30162;53.642;10.640;2023-06-10T10:14:40;31.80;55.20
44461;DHT22;30162;53.642;10.640;2023-06-10T10:17:09;31.00;57.10
44461;DHT22;30162;53.642;10.640;2023-06-10T10:19:40;31.30;56.30
44461;DHT22;30162;53.642;10.640;2023-06-10T10:22:09;31.80;56.50
44461;DHT22;30162;53.642;10.640;2023-06-10T10:24:41;32.10;56.40
44461;DHT22;30162;53.642;10.640;2023-06-10T10:27:11;32.20;55.30
44461;DHT22;30162;53.642;10.640;2023-06-10T10:29:39;32.20;55.20
44461;DHT22;30162;53.642;10.640;2023-06-10T10:32:06;32.00;55.50
44461;DHT22;30162;53.642;10.640;2023-06-10T10:37:12;32.40;55.50
44461;DHT22;30162;53.642;10.640;2023-06-10T10:39:38;32.60;55.10
44461;DHT22;30162;53.642;10.640;2023-06-10T10:42:04;32.40;55.30
44461;DHT22;30162;53.642;10.640;2023-06-10T10:44:30;32.20;55.50
44461;DHT22;30162;53.642;10.640;2023-06-10T10:46:56;32.60;55.50
44461;DHT22;30162;53.642;10.640;2023-06-10T10:49:23;32.80;55.10
44461;DHT22;30162;53.642;10.640;2023-06-10T10:51:56;33.00;55.10
44461;DHT22;30162;53.642;10.640;2023-06-10T10:54:29;33.10;55.10
44461;DHT22;30162;53.642;10.640;2023-06-10T10:57:15;33.10;54.90
44461;DHT22;30162;53.642;10.640;2023-06-10T11:02:09;32.40;56.50
44461;DHT22;30162;53.642;10.640;2023-06-10T11:04:34;32.70;55.00
44461;DHT22;30162;53.642;10.640;2023-06-10T11:07:06;32.80;54.90
44461;DHT22;30162;53.642;10.640;2023-06-10T11:09:32;33.00;55.10
44461;DHT22;30162;53.642;10.640;2023-06-10T11:11:58;33.20;54.80
44461;DHT22;30162;53.642;10.640;2023-06-10T11:14:26;33.20;55.10
44461;DHT22;30162;53.642;10.640;2023-06-10T11:16:53;33.50;54.80
44461;DHT22;30162;53.642;10.640;2023-06-10T11:19:31;33.60;54.80
44461;DHT22;30162;53.642;10.640;2023-06-10T11:21:57;33.70;54.20
44461;DHT22;30162;53.642;10.640;2023-06-10T11:24:24;33.80;53.30
44461;DHT22;30162;53.642;10.640;2023-06-10T11:26:49;33.60;53.70
44461;DHT22;30162;53.642;10.640;2023-06-10T11:29:15;33.70;53.90
44461;DHT22;30162;53.642;10.640;2023-06-10T11:31:41;33.90;54.20
44461;DHT22;30162;53.642;10.640;2023-06-10T11:34:07;34.20;53.60
44461;DHT22;30162;53.642;10.640;2023-06-10T11:36:34;34.10;53.10
44461;DHT22;30162;53.642;10.640;2023-06-10T11:39:02;33.50;52.80
44461;DHT22;30162;53.642;10.640;2023-06-10T11:41:28;33.70;54.00
44461;DHT22;30162;53.642;10.640;2023-06-10T11:44:04;33.60;52.80
44461;DHT22;30162;53.642;10.640;2023-06-10T11:46:29;33.70;53.90
44461;DHT22;30162;53.642;10.640;2023-06-10T11:48:56;33.80;53.80
44461;DHT22;30162;53.642;10.640;2023-06-10T11:51:21;34.00;53.80
44461;DHT22;30162;53.642;10.640;2023-06-10T11:53:47;33.90;54.20
44461;DHT22;30162;53.642;10.640;2023-06-10T11:56:13;34.20;53.60
44461;DHT22;30162;53.642;10.640;2023-06-10T11:58:40;34.30;54.00
44461;DHT22;30162;53.642;10.640;2023-06-10T12:01:08;34.50;53.60
44461;DHT22;30162;53.642;10.640;2023-06-10T12:03:37;34.30;53.80
44461;DHT22;30162;53.642;10.640;2023-06-10T12:06:06;34.30;53.60
44461;DHT22;30162;53.642;10.640;2023-06-10T12:08:32;34.30;54.30
44461;DHT22;30162;53.642;10.640;2023-06-10T12:10:58;34.50;54.10
44461;DHT22;30162;53.642;10.640;2023-06-10T12:13:26;34.70;54.00
44461;DHT22;30162;53.642;10.640;2023-06-10T12:15:51;34.70;54.00
44461;DHT22;30162;53.642;10.640;2023-06-10T12:18:17;34.80;54.00
44461;DHT22;30162;53.642;10.640;2023-06-10T12:20:44;34.90;54.70
44461;DHT22;30162;53.642;10.640;2023-06-10T12:23:10;35.00;54.20
44461;DHT22;30162;53.642;10.640;2023-06-10T12:25:35;34.60;54.50
44461;DHT22;30162;53.642;10.640;2023-06-10T12:28:04;34.30;54.60
44461;DHT22;30162;53.642;10.640;2023-06-10T12:30:31;34.30;54.10
44461;DHT22;30162;53.642;10.640;2023-06-10T12:32:57;34.30;53.70
44461;DHT22;30162;53.642;10.640;2023-06-10T12:35:23;34.10;54.50
44461;DHT22;30162;53.642;10.640;2023-06-10T12:38:03;34.10;55.30
44461;DHT22;30162;53.642;10.640;2023-06-10T12:40:30;34.30;55.30
44461;DHT22;30162;53.642;10.640;2023-06-10T12:42:59;34.50;55.40
44461;DHT22;30162;53.642;10.640;2023-06-10T12:45:34;34.80;54.80
44461;DHT22;30162;53.642;10.640;2023-06-10T12:48:09;34.60;54.60
44461;DHT22;30162;53.642;10.640;2023-06-10T12:50:39;34.60;54.60
44461;DHT22;30162;53.642;10.640;2023-06-10T12:53:05;34.50;54.50
44461;DHT22;30162;53.642;10.640;2023-06-10T12:55:31;34.40;54.80
44461;DHT22;30162;53.642;10.640;2023-06-10T12:57:57;34.40;54.80
44461;DHT22;30162;53.642;10.640;2023-06-10T13:00:23;34.50;54.80
44461;DHT22;30162;53.642;10.640;2023-06-10T13:02:54;34.50;54.90
44461;DHT22;30162;53.642;10.640;2023-06-10T13:05:19;34.60;55.40
44461;DHT22;30162;53.642;10.640;2023-06-10T13:07:45;34.80;55.10
44461;DHT22;30162;53.642;10.640;2023-06-10T13:10:12;34.70;54.50
44461;DHT22;30162;53.642;10.640;2023-06-10T13:12:38;34.60;54.90
44461;DHT22;30162;53.642;10.640;2023-06-10T13:15:04;34.50;54.60
44461;DHT22;30162;53.642;10.640;2023-06-10T13:17:30;34.20;54.80
44461;DHT22;30162;53.642;10.640;2023-06-10T13:19:55;34.30;55.90
44461;DHT22;30162;53.642;10.640;2023-06-10T13:22:21;34.40;55.30
44461;DHT22;30162;53.642;10.640;2023-06-10T13:24:47;34.40;54.70
44461;DHT22;30162;53.642;10.640;2023-06-10T13:27:13;34.10;55.70
44461;DHT22;30162;53.642;10.640;2023-06-10T13:29:39;34.00;55.70
44461;DHT22;30162;53.642;10.640;2023-06-10T13:32:05;34.00;55.50
44461;DHT22;30162;53.642;10.640;2023-06-10T13:34:30;33.80;55.80
44461;DHT22;30162;53.642;10.640;2023-06-10T13:36:56;33.70;55.90
44461;DHT22;30162;53.642;10.640;2023-06-10T13:39:21;33.40;56.30
44461;DHT22;30162;53.642;10.640;2023-06-10T13:41:47;33.60;55.80
44461;DHT22;30162;53.642;10.640;2023-06-10T13:44:12;33.50;55.90
44461;DHT22;30162;53.642;10.640;2023-06-10T13:46:37;33.60;55.90
44461;DHT22;30162;53.642;10.640;2023-06-10T13:49:03;33.50;56.00
44461;DHT22;30162;53.642;10.640;2023-06-10T13:51:28;33.30;56.20
44461;DHT22;30162;53.642;10.640;2023-06-10T13:53:54;33.20;56.20
44461;DHT22;30162;53.642;10.640;2023-06-10T13:56:19;33.20;56.70
44461;DHT22;30162;53.642;10.640;2023-06-10T13:58:45;33.20;56.30
44461;DHT22;30162;53.642;10.640;2023-06-10T14:01:10;33.10;57.30
44461;DHT22;30162;53.642;10.640;2023-06-10T14:03:36;33.00;56.70
44461;DHT22;30162;53.642;10.640;2023-06-10T14:06:02;33.20;57.10
44461;DHT22;30162;53.642;10.640;2023-06-10T14:08:28;33.50;56.30
44461;DHT22;30162;53.642;10.640;2023-06-10T14:10:54;33.80;55.70
44461;DHT22;30162;53.642;10.640;2023-06-10T14:13:19;33.80;55.80
44461;DHT22;30162;53.642;10.640;2023-06-10T14:15:45;33.80;55.70
44461;DHT22;30162;53.642;10.640;2023-06-10T14:18:10;33.60;56.30
44461;DHT22;30162;53.642;10.640;2023-06-10T14:20:36;33.70;55.70
44461;DHT22;30162;53.642;10.640;2023-06-10T14:23:01;33.40;55.60
44461;DHT22;30162;53.642;10.640;2023-06-10T14:25:27;33.10;56.00
44461;DHT22;30162;53.642;10.640;2023-06-10T14:27:53;33.10;55.90
44461;DHT22;30162;53.642;10.640;2023-06-10T14:30:18;33.10;56.20
44461;DHT22;30162;53.642;10.640;2023-06-10T14:32:44;33.20;56.20
44461;DHT22;30162;53.642;10.640;2023-06-10T14:35:09;33.30;55.60
44461;DHT22;30162;53.642;10.640;2023-06-10T14:37:35;33.30;56.30
44461;DHT22;30162;53.642;10.640;2023-06-10T14:40:01;33.20;56.20
44461;DHT22;30162;53.642;10.640;2023-06-10T14:42:26;32.90;56.60
44461;DHT22;30162;53.642;10.640;2023-06-10T14:44:52;33.00;56.50
44461;DHT22;30162;53.642;10.640;2023-06-10T14:47:17;32.60;56.00
44461;DHT22;30162;53.642;10.640;2023-06-10T14:49:43;32.70;56.70
44461;DHT22;30162;53.642;10.640;2023-06-10T14:52:09;32.50;56.50
44461;DHT22;30162;53.642;10.640;2023-06-10T14:54:34;32.30;56.20
44461;DHT22;30162;53.642;10.640;2023-06-10T14:57:00;32.30;57.00
44461;DHT22;30162;53.642;10.640;2023-06-10T14:59:25;32.30;57.00
44461;DHT22;30162;53.642;10.640;2023-06-10T15:01:51;32.40;57.20
44461;DHT22;30162;53.642;10.640;2023-06-10T15:04:17;32.70;56.50
44461;DHT22;30162;53.642;10.640;2023-06-10T15:06:42;32.70;57.00
44461;DHT22;30162;53.642;10.640;2023-06-10T15:09:08;32.80;56.20
44461;DHT22;30162;53.642;10.640;2023-06-10T15:11:34;32.60;56.30
44461;DHT22;30162;53.642;10.640;2023-06-10T15:13:59;32.40;56.60
44461;DHT22;30162;53.642;10.640;2023-06-10T15:16:25;32.40;56.70
44461;DHT22;30162;53.642;10.640;2023-06-10T15:18:50;32.20;56.70
44461;DHT22;30162;53.642;10.640;2023-06-10T15:21:16;32.20;56.80